KLEB/LEB METAR and TAF weather

Enter ICAO airport designator
Station Type Date Time Source
KLEB METAR 2021/05/07 00:53 UTC NOAA

KLEB 070053Z 17003KT 10SM CLR 07/01 A2995 RMK AO2 SLP142 T00720006


Station Type Date Time Source
KLEB Decoded METAR 2021/05/07 00:53 UTC NOAA

LEBANON MUNICIPAL AIRPORT, NH, United States (KLEB) 43-38N 072-18W 171M
May 06, 2021 - 08:53 PM EDT / 2021.05.07 0053 UTC
Wind: from the S (170 degrees) at 3 MPH (3 KT):0
Visibility: 10 mile(s):0
Sky conditions: clear
Temperature: 45.0 F (7.2 C)
Dew Point: 33.1 F (0.6 C)
Relative Humidity: 62%
Pressure (altimeter): 29.95 in. Hg (1014 hPa)
ob: KLEB 070053Z 17003KT 10SM CLR 07/01 A2995 RMK AO2 SLP142 T00720006
cycle: 1

Station Type Date Time Source
KLEB TAF 2021/05/06 18:21 UTC NOAA

TAF KLEB 061720Z 0618/0718 31011G20KT P6SM FEW100
FM062230 32009KT P6SM FEW120

Example: see airport list